Time;durP1;ratioP1;P1;durP2;ratioP2;P2;SDS_P1;SDS_P2;PMS_P1;PMS_P2;Temp;Humidity;BMP_temperature;BMP_pressure;BME280_temperature;BME280_humidity;BME280_pressure;Samples;Min_cycle;Max_cycle;Signal;HPM_P1;HPM_P2
2021/05/22 00:01:54;;;;;;;4.15;0.85;;;11.30;99.90;;;;;;5114388;28;20039;-62
2021/05/22 00:04:20;;;;;;;3.65;1.55;;;11.40;99.90;;;;;;5112860;28;20028;-62
2021/05/22 00:06:45;;;;;;;4.20;0.85;;;11.10;99.90;;;;;;5114650;28;20038;-62
2021/05/22 00:09:11;;;;;;;5.47;1.23;;;11.00;99.90;;;;;;5114069;28;20024;-62
2021/05/22 00:11:37;;;;;;;5.55;1.33;;;10.90;99.90;;;;;;5114382;28;20035;-61
2021/05/22 00:14:04;;;;;;;4.70;0.70;;;10.80;99.90;;;;;;5113145;28;20023;-62
2021/05/22 00:16:30;;;;;;;6.95;0.60;;;10.60;99.90;;;;;;5112196;28;20606;-62
2021/05/22 00:18:55;;;;;;;7.20;1.30;;;10.60;99.90;;;;;;5112320;28;20078;-62
2021/05/22 00:21:21;;;;;;;2.00;0.75;;;10.60;99.90;;;;;;5112287;28;20024;-62
2021/05/22 00:23:47;;;;;;;4.13;0.77;;;10.60;99.90;;;;;;5114416;28;20050;-62
2021/05/22 00:26:12;;;;;;;5.95;1.10;;;10.70;99.90;;;;;;5113703;28;20050;-63
2021/05/22 00:28:38;;;;;;;2.25;0.77;;;10.80;99.90;;;;;;5112834;28;20031;-61
2021/05/22 00:31:04;;;;;;;7.35;1.08;;;10.80;99.90;;;;;;5113838;28;20092;-62
2021/05/22 00:33:29;;;;;;;2.00;0.75;;;10.80;99.90;;;;;;5113371;28;20027;-61
2021/05/22 00:35:55;;;;;;;3.03;0.80;;;10.90;99.90;;;;;;5113957;28;20026;-61
2021/05/22 00:38:21;;;;;;;3.72;0.60;;;10.70;99.90;;;;;;5113097;28;20028;-62
2021/05/22 00:40:47;;;;;;;6.70;1.00;;;10.80;99.90;;;;;;5112044;28;20024;-62
2021/05/22 00:43:12;;;;;;;5.68;0.90;;;10.70;99.90;;;;;;5112910;28;20038;-65
2021/05/22 00:45:38;;;;;;;5.53;1.13;;;10.70;99.90;;;;;;5113315;28;20039;-62
2021/05/22 00:48:04;;;;;;;6.72;1.77;;;10.80;99.90;;;;;;5113392;28;20023;-62
2021/05/22 00:50:37;;;;;;;1.90;0.80;;;10.80;99.90;;;;;;5113014;28;20377;-62
2021/05/22 00:53:05;;;;;;;3.35;0.90;;;10.80;99.90;;;;;;5113264;28;20027;-62
2021/05/22 00:55:31;;;;;;;6.65;0.88;;;10.60;99.90;;;;;;5111548;28;20357;-62
2021/05/22 00:57:57;;;;;;;3.00;0.88;;;10.70;99.90;;;;;;5113306;28;20020;-63
2021/05/22 01:00:46;;;;;;;3.10;1.58;;;10.80;99.90;;;;;;5112453;28;20057;-63
2021/05/22 01:03:25;;;;;;;2.60;0.68;;;10.90;99.90;;;;;;5104497;28;20098;-61
2021/05/22 01:05:52;;;;;;;4.68;0.95;;;10.90;99.90;;;;;;5113059;28;20066;-63
2021/05/22 01:08:23;;;;;;;6.20;1.10;;;10.90;99.90;;;;;;5094165;28;20024;-63
2021/05/22 01:11:13;;;;;;;2.50;0.60;;;10.90;99.90;;;;;;5112969;28;20023;-63
2021/05/22 01:13:42;;;;;;;2.72;0.73;;;10.90;99.90;;;;;;5111689;28;20106;-63
2021/05/22 01:16:10;;;;;;;3.80;0.85;;;10.90;99.90;;;;;;5112651;28;20456;-63
2021/05/22 01:18:37;;;;;;;3.22;0.82;;;11.00;99.90;;;;;;5112602;28;20079;-63
2021/05/22 01:21:04;;;;;;;1.13;0.40;;;11.00;99.90;;;;;;5113046;28;20023;-63
2021/05/22 01:23:42;;;;;;;2.78;0.63;;;11.00;99.90;;;;;;5112293;28;20055;-62
2021/05/22 01:26:09;;;;;;;3.60;0.90;;;10.80;99.90;;;;;;5112969;28;20027;-63
2021/05/22 01:28:36;;;;;;;2.63;0.60;;;10.80;99.90;;;;;;5112587;28;20035;-63
2021/05/22 01:31:03;;;;;;;3.28;0.65;;;10.80;99.90;;;;;;5110969;28;20083;-62
2021/05/22 01:33:29;;;;;;;5.88;0.68;;;10.70;99.90;;;;;;5110964;28;20028;-62
2021/05/22 01:35:55;;;;;;;4.45;0.60;;;10.70;99.90;;;;;;5112855;28;20032;-62
2021/05/22 01:38:21;;;;;;;3.95;0.80;;;10.70;99.90;;;;;;5112051;28;20422;-62
2021/05/22 01:40:47;;;;;;;6.82;0.70;;;10.70;99.90;;;;;;5112413;28;20023;-62
2021/05/22 01:43:13;;;;;;;4.90;0.93;;;10.70;99.90;;;;;;5112331;28;20119;-62
2021/05/22 01:45:41;;;;;;;5.00;0.90;;;10.70;99.90;;;;;;5110511;28;20467;-62
2021/05/22 01:48:10;;;;;;;4.20;0.93;;;10.60;99.90;;;;;;5112167;28;20050;-62
2021/05/22 01:50:42;;;;;;;3.35;0.60;;;10.70;99.90;;;;;;5111393;28;20032;-62
2021/05/22 01:53:10;;;;;;;2.17;0.77;;;10.70;99.90;;;;;;5112383;28;20028;-61
2021/05/22 01:55:40;;;;;;;2.92;0.77;;;10.60;99.90;;;;;;5110302;28;20031;-61
2021/05/22 01:58:09;;;;;;;6.13;1.05;;;10.60;99.90;;;;;;5112371;28;20024;-62
2021/05/22 02:00:35;;;;;;;4.55;0.98;;;10.60;99.90;;;;;;5112060;28;20111;-62
2021/05/22 02:03:09;;;;;;;3.10;0.90;;;10.70;99.90;;;;;;5112093;28;20070;-62
2021/05/22 02:05:35;;;;;;;3.28;0.70;;;10.70;99.90;;;;;;5110325;28;20031;-62
2021/05/22 02:08:02;;;;;;;3.53;0.80;;;10.60;99.90;;;;;;5112238;28;20043;-62
2021/05/22 02:10:29;;;;;;;3.83;1.15;;;10.70;99.90;;;;;;5111741;28;20031;-63
2021/05/22 02:12:57;;;;;;;6.13;0.80;;;10.60;99.90;;;;;;5110491;28;20126;-62
2021/05/22 02:15:25;;;;;;;1.95;0.88;;;10.70;99.90;;;;;;5110161;28;20372;-63
2021/05/22 02:17:52;;;;;;;3.55;0.68;;;10.80;99.90;;;;;;5110736;28;20484;-63
2021/05/22 02:20:21;;;;;;;4.28;1.42;;;10.70;99.90;;;;;;5111349;28;20076;-70
2021/05/22 02:22:47;;;;;;;1.60;0.55;;;10.70;99.90;;;;;;5110349;28;20449;-63
2021/05/22 02:25:14;;;;;;;4.68;1.85;;;10.60;99.90;;;;;;5111914;28;20038;-62
2021/05/22 02:27:40;;;;;;;2.50;0.60;;;10.70;99.90;;;;;;5111131;28;20027;-63
2021/05/22 02:30:09;;;;;;;2.72;0.43;;;10.70;99.90;;;;;;5110693;28;20041;-62
2021/05/22 02:32:38;;;;;;;4.18;0.80;;;10.70;99.90;;;;;;5110380;28;20039;-63
2021/05/22 02:35:06;;;;;;;1.63;0.55;;;10.60;99.90;;;;;;5111944;28;20046;-62
2021/05/22 02:37:33;;;;;;;10.10;1.10;;;10.60;99.90;;;;;;5111330;28;20059;-62
2021/05/22 02:40:02;;;;;;;2.83;0.45;;;10.50;99.90;;;;;;5111453;28;20058;-62
2021/05/22 02:42:32;;;;;;;2.10;0.57;;;10.50;99.90;;;;;;5110873;28;20471;-61
2021/05/22 02:45:00;;;;;;;3.58;0.68;;;10.60;99.90;;;;;;5111675;28;20036;-62
2021/05/22 02:47:28;;;;;;;4.97;0.60;;;10.60;99.90;;;;;;5109501;28;20090;-62
2021/05/22 02:50:00;;;;;;;4.18;0.80;;;10.50;99.90;;;;;;5110092;28;20039;-62
2021/05/22 02:52:27;;;;;;;1.38;0.50;;;10.50;99.90;;;;;;5110933;28;20503;-62
2021/05/22 02:54:54;;;;;;;6.05;0.65;;;10.60;99.90;;;;;;5110253;28;20464;-62
2021/05/22 02:57:21;;;;;;;3.95;0.68;;;10.50;99.90;;;;;;5111108;28;20035;-83
2021/05/22 02:59:51;;;;;;;3.83;0.90;;;10.40;99.90;;;;;;5111486;28;20023;-62
2021/05/22 03:02:17;;;;;;;3.97;1.20;;;10.30;99.90;;;;;;5110018;28;20024;-62
2021/05/22 03:04:45;;;;;;;7.10;1.00;;;10.30;99.90;;;;;;5109531;28;20057;-61
2021/05/22 03:07:11;;;;;;;2.92;1.48;;;10.30;99.90;;;;;;5111476;28;20491;-62
2021/05/22 03:09:36;;;;;;;1.30;0.60;;;10.30;99.90;;;;;;5109266;28;20088;-61
2021/05/22 03:12:03;;;;;;;3.88;0.60;;;10.20;99.90;;;;;;5110990;28;20122;-61
2021/05/22 03:14:29;;;;;;;5.68;0.80;;;10.20;99.90;;;;;;5109299;28;20373;-62
2021/05/22 03:16:55;;;;;;;1.42;0.65;;;10.20;99.90;;;;;;5110548;28;20028;-62
2021/05/22 03:19:21;;;;;;;2.40;0.75;;;10.20;99.90;;;;;;5110969;28;20027;-83
2021/05/22 03:21:46;;;;;;;1.60;0.60;;;10.20;99.90;;;;;;5110701;28;20032;-62
2021/05/22 03:24:13;;;;;;;2.90;0.75;;;10.10;99.90;;;;;;5111655;28;20318;-62
2021/05/22 03:26:38;;;;;;;3.38;0.68;;;10.20;99.90;;;;;;5111124;28;20053;-64
2021/05/22 03:29:04;;;;;;;3.05;0.55;;;10.20;99.90;;;;;;5111741;28;20028;-63
2021/05/22 03:31:30;;;;;;;2.60;0.60;;;10.20;99.90;;;;;;5114737;28;20101;-63
2021/05/22 03:33:56;;;;;;;4.22;1.25;;;10.10;99.90;;;;;;5115382;28;20070;-63
2021/05/22 03:36:22;;;;;;;3.13;0.52;;;10.10;99.90;;;;;;5113864;28;20035;-64
2021/05/22 03:38:48;;;;;;;2.25;0.57;;;10.10;99.90;;;;;;5113792;28;20031;-64
2021/05/22 03:41:13;;;;;;;2.70;0.80;;;10.00;99.90;;;;;;5115113;28;20115;-63
2021/05/22 03:43:39;;;;;;;2.45;0.45;;;10.10;99.90;;;;;;5114323;28;20480;-63
2021/05/22 03:46:05;;;;;;;6.95;1.05;;;9.90;99.90;;;;;;5114988;28;20417;-63
2021/05/22 03:48:31;;;;;;;12.50;2.70;;;10.00;99.90;;;;;;5114215;28;20028;-63
2021/05/22 03:50:56;;;;;;;2.95;1.10;;;10.10;99.90;;;;;;5114963;28;20163;-63
2021/05/22 03:53:23;;;;;;;5.45;2.45;;;10.00;99.90;;;;;;5113504;28;20413;-64
2021/05/22 03:55:49;;;;;;;3.22;0.82;;;10.00;99.90;;;;;;5113476;28;20024;-63
2021/05/22 03:58:14;;;;;;;7.80;0.75;;;10.10;99.90;;;;;;5114400;28;20023;-63
2021/05/22 04:00:40;;;;;;;4.15;0.65;;;10.00;99.90;;;;;;5113892;28;20030;-64
2021/05/22 04:03:06;;;;;;;2.88;1.13;;;10.00;99.90;;;;;;5113116;28;20073;-64
2021/05/22 04:05:33;;;;;;;2.55;0.70;;;10.00;99.90;;;;;;5113978;28;20168;-64
2021/05/22 04:08:00;;;;;;;3.70;0.80;;;10.00;99.90;;;;;;5113010;28;20353;-64
2021/05/22 04:10:26;;;;;;;5.80;0.60;;;10.00;99.90;;;;;;5113845;28;20020;-64
2021/05/22 04:12:51;;;;;;;2.00;0.70;;;10.00;99.90;;;;;;5114054;28;20031;-64
2021/05/22 04:15:17;;;;;;;4.75;0.80;;;10.00;99.90;;;;;;5112942;28;20457;-63
2021/05/22 04:17:42;;;;;;;3.25;0.90;;;10.00;99.90;;;;;;5111968;28;20051;-64
2021/05/22 04:20:09;;;;;;;4.78;0.52;;;10.00;99.90;;;;;;5112546;28;20139;-63
2021/05/22 04:22:34;;;;;;;5.80;1.05;;;10.00;99.90;;;;;;5113237;28;20027;-63
2021/05/22 04:25:00;;;;;;;3.22;0.95;;;10.00;99.90;;;;;;5112509;28;20055;-63
2021/05/22 04:27:26;;;;;;;6.20;1.00;;;9.90;99.90;;;;;;5112482;28;20022;-65
2021/05/22 04:29:52;;;;;;;5.10;0.90;;;10.00;99.90;;;;;;5112281;28;20403;-64
2021/05/22 04:32:17;;;;;;;3.88;0.80;;;9.90;99.90;;;;;;5112596;28;20032;-63
2021/05/22 04:34:43;;;;;;;3.17;0.60;;;9.90;99.90;;;;;;5113480;28;20054;-64
2021/05/22 04:37:08;;;;;;;7.30;0.93;;;10.00;99.90;;;;;;5113945;28;20047;-64
2021/05/22 04:39:34;;;;;;;2.88;1.20;;;10.00;99.90;;;;;;5113374;28;20387;-64
2021/05/22 04:42:00;;;;;;;5.40;0.68;;;10.10;99.90;;;;;;5111891;28;20046;-64
2021/05/22 04:44:26;;;;;;;6.80;0.98;;;10.10;99.90;;;;;;5112330;28;20092;-63
2021/05/22 04:46:51;;;;;;;2.70;1.23;;;10.10;99.90;;;;;;5113542;28;20043;-64
2021/05/22 04:49:17;;;;;;;4.25;0.77;;;10.20;99.90;;;;;;5113581;28;20059;-64
2021/05/22 04:51:45;;;;;;;3.90;0.95;;;10.00;99.90;;;;;;5112906;28;20038;-64
2021/05/22 04:54:11;;;;;;;9.13;1.67;;;10.10;99.90;;;;;;5113519;28;20020;-63
2021/05/22 04:56:36;;;;;;;4.10;0.73;;;10.20;99.90;;;;;;5113201;28;20403;-64
2021/05/22 04:59:03;;;;;;;7.10;1.30;;;10.20;99.90;;;;;;5113064;28;20030;-63
2021/05/22 05:01:28;;;;;;;6.72;1.25;;;10.30;99.90;;;;;;5113002;28;20107;-64
2021/05/22 05:03:54;;;;;;;2.92;0.85;;;10.30;99.90;;;;;;5113379;28;20138;-63
2021/05/22 05:06:20;;;;;;;6.03;1.10;;;10.40;99.90;;;;;;5113233;28;20020;-63
2021/05/22 05:08:46;;;;;;;4.88;0.98;;;10.50;99.90;;;;;;5111495;28;20020;-63
2021/05/22 05:11:13;;;;;;;5.72;1.00;;;10.60;99.90;;;;;;5113320;28;20031;-63
2021/05/22 05:13:38;;;;;;;7.93;1.15;;;10.60;99.90;;;;;;5112941;28;20024;-62
2021/05/22 05:16:04;;;;;;;4.70;1.10;;;10.60;99.90;;;;;;5111661;28;20024;-63
2021/05/22 05:18:30;;;;;;;5.20;0.90;;;10.60;99.90;;;;;;5110805;28;20043;-64
2021/05/22 05:20:56;;;;;;;4.28;0.88;;;10.70;99.90;;;;;;5112893;28;20453;-63
2021/05/22 05:23:22;;;;;;;5.95;1.10;;;10.70;99.90;;;;;;5113056;28;20028;-64
2021/05/22 05:25:51;;;;;;;5.03;0.73;;;10.80;99.90;;;;;;5111248;28;20305;-63
2021/05/22 05:28:17;;;;;;;7.78;1.08;;;10.80;99.90;;;;;;5113003;28;20055;-65
2021/05/22 05:30:43;;;;;;;6.05;1.05;;;10.80;99.90;;;;;;5112200;28;20023;-63
2021/05/22 05:33:08;;;;;;;4.28;0.63;;;10.90;99.90;;;;;;5112571;28;20107;-64
2021/05/22 05:35:34;;;;;;;4.78;0.90;;;10.90;99.90;;;;;;5111879;28;20111;-63
2021/05/22 05:38:00;;;;;;;2.83;0.80;;;11.00;99.90;;;;;;5113038;28;20073;-63
2021/05/22 05:40:25;;;;;;;3.30;0.82;;;10.90;99.90;;;;;;5112632;28;20376;-63
2021/05/22 05:42:51;;;;;;;9.95;1.17;;;10.90;99.90;;;;;;5110637;28;20093;-63
2021/05/22 05:45:17;;;;;;;2.22;0.73;;;11.00;99.90;;;;;;5112131;28;20361;-63
2021/05/22 05:47:43;;;;;;;8.23;1.00;;;11.10;99.90;;;;;;5110191;28;20031;-63
2021/05/22 05:50:09;;;;;;;7.38;1.75;;;11.10;99.90;;;;;;5110930;28;20050;-63
2021/05/22 05:52:35;;;;;;;3.90;0.70;;;11.20;99.90;;;;;;5109302;28;20119;-63
2021/05/22 05:55:00;;;;;;;5.57;1.10;;;11.20;99.90;;;;;;5112205;28;20120;-63
2021/05/22 05:57:26;;;;;;;9.50;1.40;;;11.30;99.90;;;;;;5111874;28;20106;-63
2021/05/22 05:59:51;;;;;;;6.40;1.33;;;11.30;99.90;;;;;;5111489;28;20024;-62
2021/05/22 06:02:17;;;;;;;4.05;0.80;;;11.30;99.90;;;;;;5110787;28;20036;-63
2021/05/22 06:04:43;;;;;;;4.03;1.00;;;11.40;99.90;;;;;;5112034;28;20103;-64
2021/05/22 06:07:08;;;;;;;8.20;0.90;;;11.30;99.90;;;;;;5112247;28;20457;-63
2021/05/22 06:09:35;;;;;;;9.00;1.13;;;11.40;99.90;;;;;;5111172;28;20023;-64
2021/05/22 06:12:00;;;;;;;11.45;1.80;;;11.50;99.90;;;;;;5111674;28;20031;-64
2021/05/22 06:14:32;;;;;;;4.97;1.15;;;11.60;99.90;;;;;;5110606;28;20024;-63
2021/05/22 06:16:58;;;;;;;7.40;1.42;;;11.60;99.90;;;;;;5112199;28;20396;-63
2021/05/22 06:19:24;;;;;;;6.25;1.55;;;11.60;99.90;;;;;;5110333;28;20118;-63
2021/05/22 06:21:49;;;;;;;6.60;0.77;;;11.60;99.90;;;;;;5109616;28;20031;-63
2021/05/22 06:24:15;;;;;;;4.68;1.08;;;11.60;99.90;;;;;;5111085;28;20131;-63
2021/05/22 06:26:41;;;;;;;6.28;0.70;;;11.60;99.90;;;;;;5110607;28;20036;-64
2021/05/22 06:29:07;;;;;;;5.15;0.93;;;11.60;99.90;;;;;;5111280;28;20469;-63
2021/05/22 06:31:32;;;;;;;4.05;0.90;;;11.50;99.90;;;;;;5110978;28;20027;-82
2021/05/22 06:33:58;;;;;;;5.63;1.33;;;11.60;99.90;;;;;;5110290;28;20353;-63
2021/05/22 06:36:27;;;;;;;5.82;1.83;;;11.70;99.90;;;;;;5110238;28;20031;-62
2021/05/22 06:38:53;;;;;;;7.93;1.35;;;11.90;99.90;;;;;;5109572;28;20097;-64
2021/05/22 06:41:18;;;;;;;4.47;0.70;;;11.90;99.90;;;;;;5110323;28;20031;-63
2021/05/22 06:43:44;;;;;;;15.20;1.40;;;11.90;99.90;;;;;;5109301;28;20031;-62
2021/05/22 06:48:38;;;;;;;5.97;0.98;;;12.10;99.90;;;;;;5110120;28;20032;-62
2021/05/22 06:51:04;;;;;;;8.30;1.15;;;12.10;99.90;;;;;;5110255;28;20024;-63
2021/05/22 06:53:30;;;;;;;7.35;1.05;;;12.00;99.90;;;;;;5110653;28;20437;-64
2021/05/22 06:55:59;;;;;;;5.28;1.00;;;12.20;99.90;;;;;;5109846;28;20020;-63
2021/05/22 06:58:25;;;;;;;9.30;1.10;;;12.20;99.90;;;;;;5110276;28;20068;-64
2021/05/22 07:00:51;;;;;;;5.68;0.82;;;12.30;99.90;;;;;;5109841;28;20104;-63
2021/05/22 07:03:16;;;;;;;4.68;0.90;;;12.40;99.90;;;;;;5110275;28;20031;-63
2021/05/22 07:05:42;;;;;;;4.47;1.23;;;12.40;99.90;;;;;;5108331;28;20045;-62
2021/05/22 07:08:08;;;;;;;5.82;0.90;;;12.30;99.90;;;;;;5110371;28;20027;-63
2021/05/22 07:10:35;;;;;;;5.60;1.00;;;12.30;99.90;;;;;;5108576;28;20497;-62
2021/05/22 07:13:01;;;;;;;5.20;0.95;;;12.10;99.90;;;;;;5109880;28;20445;-63
2021/05/22 07:15:26;;;;;;;4.30;0.70;;;12.10;99.90;;;;;;5110273;28;20032;-64
2021/05/22 07:17:52;;;;;;;5.50;0.80;;;12.10;99.90;;;;;;5107900;28;20079;-62
2021/05/22 07:20:18;;;;;;;4.45;0.88;;;12.10;99.90;;;;;;5109085;28;20326;-64
2021/05/22 07:22:44;;;;;;;6.57;1.00;;;12.10;99.90;;;;;;5109794;28;20053;-64
2021/05/22 07:25:11;;;;;;;6.85;1.80;;;12.20;99.90;;;;;;5110214;28;20062;-63
2021/05/22 07:27:36;;;;;;;7.38;1.02;;;12.50;99.90;;;;;;5109660;28;20027;-67
2021/05/22 07:30:08;;;;;;;5.15;0.75;;;12.70;99.90;;;;;;5110134;28;20024;-63
2021/05/22 07:32:38;;;;;;;6.50;0.95;;;12.90;99.90;;;;;;5108483;28;20032;-63
2021/05/22 07:35:06;;;;;;;9.75;0.82;;;12.70;99.90;;;;;;5110224;28;20039;-63
2021/05/22 07:37:32;;;;;;;6.95;1.33;;;12.60;99.90;;;;;;5108814;28;20108;-63
2021/05/22 07:39:58;;;;;;;6.70;0.93;;;12.80;99.90;;;;;;5107793;28;20414;-63
2021/05/22 07:42:25;;;;;;;7.70;1.50;;;12.70;99.90;;;;;;5108495;28;20087;-63
2021/05/22 07:44:57;;;;;;;4.47;0.90;;;12.80;99.90;;;;;;5108969;28;20446;-63
2021/05/22 07:47:23;;;;;;;7.35;1.25;;;12.90;99.90;;;;;;5091180;28;20111;-63
2021/05/22 07:49:50;;;;;;;5.20;0.82;;;13.00;99.90;;;;;;5107737;28;20063;-63
2021/05/22 07:52:16;;;;;;;6.78;0.98;;;12.60;99.90;;;;;;5109736;28;20028;-62
2021/05/22 07:54:43;;;;;;;7.45;1.00;;;12.40;99.90;;;;;;5108758;28;20096;-63
2021/05/22 07:57:09;;;;;;;4.47;1.33;;;12.40;99.90;;;;;;5109637;28;20078;-62
2021/05/22 07:59:36;;;;;;;8.80;1.00;;;12.40;99.90;;;;;;5108334;28;20035;-62
2021/05/22 08:02:03;;;;;;;5.93;1.17;;;12.40;99.90;;;;;;5109294;28;20128;-64
2021/05/22 08:04:28;;;;;;;4.20;1.63;;;12.60;99.90;;;;;;5108486;28;20115;-63
2021/05/22 08:06:54;;;;;;;4.75;0.63;;;12.70;99.90;;;;;;5109612;28;20115;-63
2021/05/22 08:09:20;;;;;;;8.52;0.80;;;13.00;99.90;;;;;;5109179;28;20030;-63
2021/05/22 08:11:47;;;;;;;4.72;0.50;;;13.70;99.90;;;;;;5109162;28;20461;-62
2021/05/22 08:14:13;;;;;;;4.20;1.33;;;13.60;99.90;;;;;;5109525;28;20046;-62
2021/05/22 08:16:40;;;;;;;4.97;0.60;;;14.00;99.90;;;;;;5110027;28;20115;-81
2021/05/22 08:19:06;;;;;;;6.18;0.70;;;14.10;98.90;;;;;;5112053;28;20035;-60
2021/05/22 08:21:32;;;;;;;7.18;0.82;;;13.70;99.70;;;;;;5113178;28;20047;-61
2021/05/22 08:23:58;;;;;;;7.82;0.60;;;13.70;99.90;;;;;;5113075;28;20066;-60
2021/05/22 08:26:24;;;;;;;6.95;1.42;;;14.10;99.90;;;;;;5112994;28;20484;-63
2021/05/22 08:28:51;;;;;;;4.30;1.00;;;13.70;99.30;;;;;;5112446;28;20321;-63
2021/05/22 08:31:17;;;;;;;8.20;0.90;;;13.40;99.80;;;;;;5109620;28;20098;-64
2021/05/22 08:33:44;;;;;;;5.55;1.05;;;13.40;99.90;;;;;;5112016;28;20043;-64
2021/05/22 08:36:09;;;;;;;3.53;0.75;;;13.30;99.90;;;;;;5112244;28;20031;-62
2021/05/22 08:38:36;;;;;;;6.90;0.98;;;13.20;99.90;;;;;;5110663;28;20134;-64
2021/05/22 08:41:03;;;;;;;3.47;0.70;;;13.30;99.70;;;;;;5111464;28;20032;-63
2021/05/22 08:43:29;;;;;;;2.00;0.50;;;13.10;99.50;;;;;;5111187;28;20441;-64
2021/05/22 08:45:56;;;;;;;5.55;0.60;;;13.10;99.60;;;;;;5110104;28;20032;-64
2021/05/22 08:48:21;;;;;;;3.00;0.93;;;13.20;99.10;;;;;;5111728;28;20023;-64
2021/05/22 08:50:48;;;;;;;7.03;0.90;;;13.20;99.10;;;;;;5111094;28;20024;-64
2021/05/22 08:53:13;;;;;;;7.18;0.90;;;13.20;99.20;;;;;;5112449;28;20031;-64
2021/05/22 08:55:40;;;;;;;2.17;0.50;;;13.10;98.80;;;;;;5111490;28;20381;-84
2021/05/22 08:58:06;;;;;;;5.10;0.57;;;13.00;98.90;;;;;;5112317;28;20443;-65
2021/05/22 09:00:38;;;;;;;4.78;0.82;;;13.00;98.80;;;;;;5111655;28;20057;-64
2021/05/22 09:03:08;;;;;;;4.00;0.60;;;13.00;99.00;;;;;;5111458;28;20023;-63
2021/05/22 09:05:35;;;;;;;4.30;0.50;;;13.00;98.90;;;;;;5110847;28;20027;-65
2021/05/22 09:08:04;;;;;;;3.13;0.82;;;13.00;99.00;;;;;;5110570;28;20028;-64
2021/05/22 09:10:33;;;;;;;5.60;0.60;;;13.20;99.00;;;;;;5110564;28;20028;-64
2021/05/22 09:13:01;;;;;;;5.45;1.00;;;13.30;99.00;;;;;;5110545;28;20494;-64
2021/05/22 09:15:32;;;;;;;6.60;0.90;;;13.40;99.00;;;;;;5112245;28;20039;-64
2021/05/22 09:18:04;;;;;;;4.38;0.95;;;13.60;98.70;;;;;;5111357;28;20071;-63
2021/05/22 09:20:32;;;;;;;3.30;0.70;;;13.50;98.20;;;;;;5109482;28;20051;-62
2021/05/22 09:23:14;;;;;;;5.53;0.73;;;13.60;98.40;;;;;;5110700;28;20032;-64
2021/05/22 09:25:50;;;;;;;2.92;0.60;;;13.70;98.40;;;;;;5093189;28;20080;-64
2021/05/22 09:28:19;;;;;;;4.82;1.83;;;13.60;98.10;;;;;;5091791;28;20028;-64
2021/05/22 09:30:48;;;;;;;2.40;0.60;;;13.60;97.70;;;;;;5091038;28;20020;-65
2021/05/22 09:33:19;;;;;;;3.67;0.82;;;13.50;98.10;;;;;;5089904;28;20104;-63
2021/05/22 09:35:55;;;;;;;;;;;13.70;97.90;;;;;;5090916;28;20032;-66
2021/05/22 09:38:34;;;;;;;4.32;0.75;;;13.80;97.90;;;;;;5089730;28;19987;-65
2021/05/22 09:41:00;;;;;;;2.55;0.50;;;13.60;97.30;;;;;;5090989;28;20052;-63
2021/05/22 09:43:25;;;;;;;5.15;1.15;;;13.70;97.60;;;;;;5090982;28;20479;-65
2021/05/22 09:45:52;;;;;;;2.28;0.40;;;13.70;97.50;;;;;;5090195;28;20232;-68
2021/05/22 09:48:20;;;;;;;5.03;0.77;;;13.70;97.40;;;;;;5089263;28;20059;-65
2021/05/22 09:50:51;;;;;;;4.38;0.68;;;13.70;97.10;;;;;;5096437;28;20081;-64
2021/05/22 09:53:19;;;;;;;3.78;0.90;;;13.70;96.80;;;;;;5110666;28;20092;-64
2021/05/22 09:56:11;;;;;;;3.80;0.70;;;13.70;97.00;;;;;;5109258;28;20030;-65
2021/05/22 09:58:46;;;;;;;5.57;0.70;;;13.70;97.00;;;;;;5111355;28;20095;-65
2021/05/22 10:01:13;;;;;;;2.65;0.60;;;13.70;96.90;;;;;;5111107;28;20047;-64
2021/05/22 10:03:39;;;;;;;4.00;0.75;;;13.80;96.60;;;;;;5110709;28;20562;-64
2021/05/22 10:06:05;;;;;;;4.82;0.43;;;13.60;96.80;;;;;;5110298;28;20027;-64
2021/05/22 10:08:31;;;;;;;7.22;1.88;;;13.60;96.80;;;;;;5109274;28;20035;-65
2021/05/22 10:10:58;;;;;;;2.97;1.00;;;13.60;96.80;;;;;;5111135;28;20020;-65
2021/05/22 10:13:25;;;;;;;12.70;1.02;;;13.60;96.90;;;;;;5108817;28;20031;-65
2021/05/22 10:15:53;;;;;;;4.05;1.00;;;13.80;96.80;;;;;;5108630;28;20028;-69
2021/05/22 10:18:21;;;;;;;7.93;1.23;;;13.90;96.60;;;;;;5110988;28;20438;-65
2021/05/22 10:20:47;;;;;;;4.80;0.65;;;13.90;96.50;;;;;;5109494;28;20162;-64
2021/05/22 10:23:14;;;;;;;2.83;0.93;;;13.80;96.20;;;;;;5110586;28;20059;-64
2021/05/22 10:25:40;;;;;;;4.68;0.57;;;13.80;96.20;;;;;;5110322;28;20047;-65
2021/05/22 10:28:08;;;;;;;7.25;1.30;;;13.90;96.20;;;;;;5108937;28;20035;-64
2021/05/22 10:30:35;;;;;;;5.57;0.57;;;13.90;96.40;;;;;;5109276;28;20118;-65
2021/05/22 10:33:06;;;;;;;4.68;0.90;;;14.00;96.10;;;;;;5108358;28;20039;-64
2021/05/22 10:35:49;;;;;;;2.55;1.15;;;14.10;96.10;;;;;;5104425;28;20438;-66
2021/05/22 10:38:33;;;;;;;5.43;0.60;;;14.00;96.30;;;;;;5108195;28;20054;-65
2021/05/22 10:41:05;;;;;;;4.03;0.45;;;14.20;95.90;;;;;;5109495;28;20445;-65
2021/05/22 10:43:44;;;;;;;;;;;14.30;95.90;;;;;;5109533;28;20101;-65
2021/05/22 10:46:11;;;;;;;6.15;0.85;;;14.20;95.50;;;;;;5110345;28;19962;-66
2021/05/22 10:48:59;;;;;;;3.63;1.13;;;14.20;96.00;;;;;;5110368;28;20039;-66
2021/05/22 10:51:35;;;;;;;4.82;0.60;;;14.20;96.50;;;;;;5107573;28;20473;-65
2021/05/22 10:54:03;;;;;;;8.32;0.80;;;14.00;97.40;;;;;;5108221;28;20023;-65
2021/05/22 10:56:30;;;;;;;4.55;0.60;;;13.90;98.00;;;;;;5108581;28;20467;-65
2021/05/22 10:58:59;;;;;;;8.10;1.08;;;13.90;97.70;;;;;;5087443;28;20110;-67
2021/05/22 11:01:47;;;;;;;1.25;0.40;;;13.90;97.20;;;;;;5088245;28;20024;-66
2021/05/22 11:06:49;;;;;;;2.63;0.57;;;13.90;98.70;;;;;;5097182;28;20032;-66
2021/05/22 11:09:35;;;;;;;4.40;0.70;;;14.20;98.30;;;;;;5111060;28;20136;-66
2021/05/22 11:12:34;;;;;;;3.45;0.50;;;14.40;97.80;;;;;;5109765;28;20110;-65
2021/05/22 11:15:00;;;;;;;3.17;0.50;;;14.60;96.60;;;;;;5107221;28;20035;-67
2021/05/22 11:17:26;;;;;;;3.22;0.88;;;14.90;95.40;;;;;;5108190;28;20126;-66
2021/05/22 11:20:12;;;;;;;6.53;0.60;;;15.10;95.70;;;;;;5106366;28;20123;-65
2021/05/22 11:22:53;;;;;;;2.53;0.73;;;15.10;94.50;;;;;;5095601;28;20431;-67
2021/05/22 11:25:19;;;;;;;2.83;0.28;;;15.20;94.30;;;;;;5108699;28;20123;-68
2021/05/22 11:27:45;;;;;;;2.22;0.30;;;15.40;94.00;;;;;;5106597;28;20034;-67
2021/05/22 11:30:13;;;;;;;3.88;0.60;;;15.40;92.80;;;;;;5106580;28;20032;-67
2021/05/22 11:32:59;;;;;;;2.17;0.50;;;15.40;93.40;;;;;;5108620;28;20027;-66
2021/05/22 11:35:28;;;;;;;11.57;0.70;;;15.40;93.10;;;;;;5108291;28;20035;-66
2021/05/22 11:38:20;;;;;;;6.63;0.30;;;15.30;93.40;;;;;;5108302;28;20027;-67
2021/05/22 11:40:48;;;;;;;3.65;0.60;;;15.10;93.70;;;;;;5101982;28;20096;-76
2021/05/22 11:43:13;;;;;;;2.97;0.43;;;14.90;93.90;;;;;;5106597;28;20330;-66
2021/05/22 11:45:43;;;;;;;4.65;0.50;;;14.90;93.70;;;;;;5108632;28;20023;-67
2021/05/22 11:48:45;;;;;;;2.22;0.40;;;15.20;93.60;;;;;;5107540;28;20020;-67
2021/05/22 11:51:12;;;;;;;;;;;15.20;93.70;;;;;;5108962;28;20515;-66
2021/05/22 11:53:39;;;;;;;4.35;0.40;;;15.50;93.50;;;;;;5110788;28;19994;-67
2021/05/22 11:56:12;;;;;;;1.98;0.40;;;15.70;93.30;;;;;;5111847;28;20024;-69
2021/05/22 11:58:39;;;;;;;3.55;0.63;;;15.70;93.10;;;;;;5111937;28;20020;-69
2021/05/22 12:01:23;;;;;;;3.67;0.40;;;15.70;93.30;;;;;;5109973;28;20376;-67
2021/05/22 12:03:52;;;;;;;4.40;0.60;;;15.40;92.80;;;;;;5110662;28;20416;-66
2021/05/22 12:06:31;;;;;;;5.15;0.47;;;15.30;93.20;;;;;;5111607;28;20031;-65
2021/05/22 12:09:06;;;;;;;2.85;0.32;;;15.10;93.30;;;;;;5112636;28;20033;-65
2021/05/22 12:11:33;;;;;;;3.22;0.73;;;14.90;94.00;;;;;;5113452;28;20371;-65
2021/05/22 12:14:09;;;;;;;1.55;0.20;;;14.90;95.00;;;;;;5113023;28;20078;-65
2021/05/22 12:16:36;;;;;;;1.63;0.40;;;15.00;95.10;;;;;;5112638;28;20020;-66
2021/05/22 12:19:21;;;;;;;2.65;0.52;;;15.00;94.60;;;;;;5110988;28;20047;-65
2021/05/22 12:21:52;;;;;;;1.75;0.35;;;14.90;94.80;;;;;;5113355;28;20019;-67
2021/05/22 12:24:19;;;;;;;3.13;0.45;;;15.10;94.80;;;;;;5113052;28;20027;-66
2021/05/22 12:26:54;;;;;;;2.60;0.40;;;15.20;94.60;;;;;;5111731;28;20068;-65
2021/05/22 12:29:22;;;;;;;5.03;0.35;;;15.60;94.10;;;;;;5109792;28;20054;-66
2021/05/22 12:31:55;;;;;;;1.95;0.17;;;16.40;93.20;;;;;;5095892;28;20141;-69
2021/05/22 12:34:31;;;;;;;2.35;0.60;;;17.00;95.00;;;;;;5109510;28;20054;-67
2021/05/22 12:37:08;;;;;;;3.97;0.65;;;17.20;90.70;;;;;;5113295;28;20023;-67
2021/05/22 12:39:40;;;;;;;3.17;0.77;;;17.00;91.00;;;;;;5113523;28;20042;-67
2021/05/22 12:42:26;;;;;;;3.13;0.60;;;16.70;91.50;;;;;;5112437;28;20028;-66
2021/05/22 12:44:54;;;;;;;1.58;0.32;;;16.30;90.80;;;;;;5107932;28;20096;-70
2021/05/22 12:47:22;;;;;;;9.45;0.47;;;15.80;92.30;;;;;;5108569;28;20028;-65
2021/05/22 12:49:52;;;;;;;5.47;0.82;;;15.70;92.70;;;;;;5112249;28;20099;-77
2021/05/22 12:52:17;;;;;;;6.10;0.40;;;15.80;92.90;;;;;;5092110;28;20040;-66
2021/05/22 12:54:45;;;;;;;6.10;0.82;;;15.90;91.90;;;;;;5090364;28;20020;-66
2021/05/22 12:57:14;;;;;;;5.72;1.40;;;16.10;91.60;;;;;;5090848;28;20114;-67
2021/05/22 12:59:45;;;;;;;3.75;0.63;;;16.10;91.30;;;;;;5110834;28;20084;-67